sensor_id;sensor_type;location;lat;lon;timestamp;P1;durP1;ratioP1;P2;durP2;ratioP2
49183;SDS011;35021;49.214;12.270;2022-10-31T00:01:19;6.00;;;3.13;;
49183;SDS011;35021;49.214;12.270;2022-10-31T00:03:51;8.80;;;3.08;;
49183;SDS011;35021;49.214;12.270;2022-10-31T00:06:19;8.25;;;3.20;;
49183;SDS011;35021;49.214;12.270;2022-10-31T00:08:46;5.07;;;2.92;;
49183;SDS011;35021;49.214;12.270;2022-10-31T00:11:17;6.32;;;2.72;;
49183;SDS011;35021;49.214;12.270;2022-10-31T00:13:44;8.20;;;2.75;;
49183;SDS011;35021;49.214;12.270;2022-10-31T00:16:15;6.47;;;3.15;;
49183;SDS011;35021;49.214;12.270;2022-10-31T00:18:43;8.98;;;3.28;;
49183;SDS011;35021;49.214;12.270;2022-10-31T00:21:10;6.13;;;3.10;;
49183;SDS011;35021;49.214;12.270;2022-10-31T00:23:36;7.55;;;2.80;;
49183;SDS011;35021;49.214;12.270;2022-10-31T00:26:03;5.50;;;3.10;;
49183;SDS011;35021;49.214;12.270;2022-10-31T00:28:31;8.93;;;3.45;;
49183;SDS011;35021;49.214;12.270;2022-10-31T00:30:59;4.82;;;2.95;;
49183;SDS011;35021;49.214;12.270;2022-10-31T00:33:30;6.93;;;3.08;;
49183;SDS011;35021;49.214;12.270;2022-10-31T00:35:59;7.05;;;3.95;;
49183;SDS011;35021;49.214;12.270;2022-10-31T00:38:25;6.68;;;3.15;;
49183;SDS011;35021;49.214;12.270;2022-10-31T00:40:52;5.45;;;3.10;;
49183;SDS011;35021;49.214;12.270;2022-10-31T00:43:19;4.78;;;2.97;;
49183;SDS011;35021;49.214;12.270;2022-10-31T00:45:46;6.38;;;3.15;;
49183;SDS011;35021;49.214;12.270;2022-10-31T00:48:13;6.57;;;3.35;;
49183;SDS011;35021;49.214;12.270;2022-10-31T00:50:39;4.30;;;2.83;;
49183;SDS011;35021;49.214;12.270;2022-10-31T00:53:06;9.07;;;3.42;;
49183;SDS011;35021;49.214;12.270;2022-10-31T00:55:33;5.22;;;2.83;;
49183;SDS011;35021;49.214;12.270;2022-10-31T00:58:00;5.30;;;3.25;;
49183;SDS011;35021;49.214;12.270;2022-10-31T01:00:28;6.53;;;3.15;;
49183;SDS011;35021;49.214;12.270;2022-10-31T01:02:55;7.93;;;3.80;;
49183;SDS011;35021;49.214;12.270;2022-10-31T01:05:22;6.40;;;3.38;;
49183;SDS011;35021;49.214;12.270;2022-10-31T01:07:49;7.15;;;3.50;;
49183;SDS011;35021;49.214;12.270;2022-10-31T01:10:16;6.75;;;3.45;;
49183;SDS011;35021;49.214;12.270;2022-10-31T01:12:45;7.15;;;3.42;;
49183;SDS011;35021;49.214;12.270;2022-10-31T01:15:14;7.90;;;4.00;;
49183;SDS011;35021;49.214;12.270;2022-10-31T01:17:43;7.00;;;3.80;;
49183;SDS011;35021;49.214;12.270;2022-10-31T01:20:10;8.85;;;3.50;;
49183;SDS011;35021;49.214;12.270;2022-10-31T01:22:38;5.60;;;3.65;;
49183;SDS011;35021;49.214;12.270;2022-10-31T01:25:05;6.80;;;3.95;;
49183;SDS011;35021;49.214;12.270;2022-10-31T01:27:33;7.07;;;3.90;;
49183;SDS011;35021;49.214;12.270;2022-10-31T01:29:59;7.78;;;3.90;;
49183;SDS011;35021;49.214;12.270;2022-10-31T01:32:27;10.15;;;3.75;;
49183;SDS011;35021;49.214;12.270;2022-10-31T01:34:55;7.93;;;4.45;;
49183;SDS011;35021;49.214;12.270;2022-10-31T01:37:21;6.93;;;3.67;;
49183;SDS011;35021;49.214;12.270;2022-10-31T01:39:48;9.80;;;4.65;;
49183;SDS011;35021;49.214;12.270;2022-10-31T01:42:16;7.22;;;4.28;;
49183;SDS011;35021;49.214;12.270;2022-10-31T01:44:53;8.23;;;4.00;;
49183;SDS011;35021;49.214;12.270;2022-10-31T01:47:34;7.07;;;4.72;;
49183;SDS011;35021;49.214;12.270;2022-10-31T01:50:11;6.82;;;4.18;;
49183;SDS011;35021;49.214;12.270;2022-10-31T01:52:51;7.63;;;4.63;;
49183;SDS011;35021;49.214;12.270;2022-10-31T01:55:20;7.60;;;4.18;;
49183;SDS011;35021;49.214;12.270;2022-10-31T01:57:57;7.28;;;3.75;;
49183;SDS011;35021;49.214;12.270;2022-10-31T02:00:30;7.00;;;4.57;;
49183;SDS011;35021;49.214;12.270;2022-10-31T02:02:57;6.55;;;4.28;;
49183;SDS011;35021;49.214;12.270;2022-10-31T02:05:27;6.63;;;3.90;;
49183;SDS011;35021;49.214;12.270;2022-10-31T02:10:38;7.20;;;4.63;;
49183;SDS011;35021;49.214;12.270;2022-10-31T02:13:07;6.28;;;3.78;;
49183;SDS011;35021;49.214;12.270;2022-10-31T02:15:35;8.38;;;4.70;;
49183;SDS011;35021;49.214;12.270;2022-10-31T02:18:04;13.43;;;4.32;;
49183;SDS011;35021;49.214;12.270;2022-10-31T02:20:33;6.38;;;3.88;;
49183;SDS011;35021;49.214;12.270;2022-10-31T02:23:20;8.50;;;4.00;;
49183;SDS011;35021;49.214;12.270;2022-10-31T02:31:03;7.93;;;3.80;;
49183;SDS011;35021;49.214;12.270;2022-10-31T02:41:31;5.00;;;3.38;;
49183;SDS011;35021;49.214;12.270;2022-10-31T02:49:18;5.70;;;3.58;;
49183;SDS011;35021;49.214;12.270;2022-10-31T02:51:53;10.25;;;4.00;;
49183;SDS011;35021;49.214;12.270;2022-10-31T02:54:24;10.07;;;4.82;;
49183;SDS011;35021;49.214;12.270;2022-10-31T02:57:10;5.75;;;3.88;;
49183;SDS011;35021;49.214;12.270;2022-10-31T02:59:38;9.23;;;4.97;;
49183;SDS011;35021;49.214;12.270;2022-10-31T03:02:25;6.32;;;4.40;;
49183;SDS011;35021;49.214;12.270;2022-10-31T03:05:11;7.78;;;3.55;;
49183;SDS011;35021;49.214;12.270;2022-10-31T03:10:44;7.88;;;3.42;;
49183;SDS011;35021;49.214;12.270;2022-10-31T03:21:55;6.22;;;4.00;;
49183;SDS011;35021;49.214;12.270;2022-10-31T03:24:34;9.23;;;4.30;;
49183;SDS011;35021;49.214;12.270;2022-10-31T03:27:05;7.25;;;4.60;;
49183;SDS011;35021;49.214;12.270;2022-10-31T03:29:36;7.90;;;4.13;;
49183;SDS011;35021;49.214;12.270;2022-10-31T03:32:08;6.93;;;4.45;;
49183;SDS011;35021;49.214;12.270;2022-10-31T03:34:39;8.50;;;4.30;;
49183;SDS011;35021;49.214;12.270;2022-10-31T03:37:09;9.02;;;4.45;;
49183;SDS011;35021;49.214;12.270;2022-10-31T03:39:38;6.60;;;3.83;;
49183;SDS011;35021;49.214;12.270;2022-10-31T03:42:11;6.80;;;3.95;;
49183;SDS011;35021;49.214;12.270;2022-10-31T03:44:48;7.97;;;4.20;;
49183;SDS011;35021;49.214;12.270;2022-10-31T03:47:19;4.70;;;3.38;;
49183;SDS011;35021;49.214;12.270;2022-10-31T03:49:46;5.18;;;3.13;;
49183;SDS011;35021;49.214;12.270;2022-10-31T03:54:53;5.32;;;3.05;;
49183;SDS011;35021;49.214;12.270;2022-10-31T03:57:29;4.65;;;3.20;;
49183;SDS011;35021;49.214;12.270;2022-10-31T04:00:02;5.78;;;3.20;;
49183;SDS011;35021;49.214;12.270;2022-10-31T04:02:32;9.02;;;3.47;;
49183;SDS011;35021;49.214;12.270;2022-10-31T04:05:04;5.18;;;3.25;;
49183;SDS011;35021;49.214;12.270;2022-10-31T04:07:34;5.90;;;3.67;;
49183;SDS011;35021;49.214;12.270;2022-10-31T04:10:11;5.18;;;3.50;;
49183;SDS011;35021;49.214;12.270;2022-10-31T04:12:44;4.13;;;3.40;;
49183;SDS011;35021;49.214;12.270;2022-10-31T04:15:16;5.00;;;3.60;;
49183;SDS011;35021;49.214;12.270;2022-10-31T04:17:43;5.60;;;3.67;;
49183;SDS011;35021;49.214;12.270;2022-10-31T04:20:16;6.03;;;3.50;;
49183;SDS011;35021;49.214;12.270;2022-10-31T04:22:44;8.07;;;3.90;;
49183;SDS011;35021;49.214;12.270;2022-10-31T04:25:11;6.38;;;3.00;;
49183;SDS011;35021;49.214;12.270;2022-10-31T04:27:38;4.85;;;2.88;;
49183;SDS011;35021;49.214;12.270;2022-10-31T04:30:05;5.82;;;3.38;;
49183;SDS011;35021;49.214;12.270;2022-10-31T04:32:33;4.20;;;3.08;;
49183;SDS011;35021;49.214;12.270;2022-10-31T04:34:59;6.30;;;3.60;;
49183;SDS011;35021;49.214;12.270;2022-10-31T04:37:26;5.30;;;3.88;;
49183;SDS011;35021;49.214;12.270;2022-10-31T04:39:53;6.32;;;3.58;;
49183;SDS011;35021;49.214;12.270;2022-10-31T04:42:20;5.68;;;4.18;;
49183;SDS011;35021;49.214;12.270;2022-10-31T04:44:47;5.82;;;3.92;;
49183;SDS011;35021;49.214;12.270;2022-10-31T04:47:14;6.82;;;4.05;;
49183;SDS011;35021;49.214;12.270;2022-10-31T04:49:40;7.47;;;4.70;;
49183;SDS011;35021;49.214;12.270;2022-10-31T04:52:07;6.85;;;4.45;;
49183;SDS011;35021;49.214;12.270;2022-10-31T04:54:34;7.90;;;4.55;;
49183;SDS011;35021;49.214;12.270;2022-10-31T04:57:01;6.82;;;4.25;;
49183;SDS011;35021;49.214;12.270;2022-10-31T04:59:28;6.55;;;4.45;;
49183;SDS011;35021;49.214;12.270;2022-10-31T05:01:54;8.40;;;4.43;;
49183;SDS011;35021;49.214;12.270;2022-10-31T05:04:21;6.65;;;5.00;;
49183;SDS011;35021;49.214;12.270;2022-10-31T05:06:48;5.85;;;4.63;;
49183;SDS011;35021;49.214;12.270;2022-10-31T05:09:15;6.85;;;5.07;;
49183;SDS011;35021;49.214;12.270;2022-10-31T05:11:42;6.55;;;4.82;;
49183;SDS011;35021;49.214;12.270;2022-10-31T05:14:09;6.43;;;4.78;;
49183;SDS011;35021;49.214;12.270;2022-10-31T05:16:36;5.30;;;4.15;;
49183;SDS011;35021;49.214;12.270;2022-10-31T05:19:03;7.43;;;4.53;;
49183;SDS011;35021;49.214;12.270;2022-10-31T05:21:29;5.15;;;4.20;;
49183;SDS011;35021;49.214;12.270;2022-10-31T05:23:56;6.45;;;4.30;;
49183;SDS011;35021;49.214;12.270;2022-10-31T05:26:23;4.60;;;3.50;;
49183;SDS011;35021;49.214;12.270;2022-10-31T05:28:50;4.97;;;3.70;;
49183;SDS011;35021;49.214;12.270;2022-10-31T05:31:17;6.63;;;4.47;;
49183;SDS011;35021;49.214;12.270;2022-10-31T05:33:44;4.85;;;3.85;;
49183;SDS011;35021;49.214;12.270;2022-10-31T05:36:11;6.00;;;3.85;;
49183;SDS011;35021;49.214;12.270;2022-10-31T05:38:37;5.65;;;3.90;;
49183;SDS011;35021;49.214;12.270;2022-10-31T05:41:04;5.70;;;4.22;;
49183;SDS011;35021;49.214;12.270;2022-10-31T05:43:31;5.90;;;3.40;;
49183;SDS011;35021;49.214;12.270;2022-10-31T05:45:58;5.00;;;3.65;;
49183;SDS011;35021;49.214;12.270;2022-10-31T05:48:25;5.35;;;3.80;;
49183;SDS011;35021;49.214;12.270;2022-10-31T05:50:52;4.68;;;3.47;;
49183;SDS011;35021;49.214;12.270;2022-10-31T05:53:18;4.65;;;3.70;;
49183;SDS011;35021;49.214;12.270;2022-10-31T05:55:46;5.03;;;3.53;;
49183;SDS011;35021;49.214;12.270;2022-10-31T05:58:13;4.43;;;3.83;;
49183;SDS011;35021;49.214;12.270;2022-10-31T06:00:40;4.30;;;3.33;;
49183;SDS011;35021;49.214;12.270;2022-10-31T06:03:07;3.55;;;3.10;;
49183;SDS011;35021;49.214;12.270;2022-10-31T06:05:35;4.18;;;3.13;;
49183;SDS011;35021;49.214;12.270;2022-10-31T06:08:01;3.92;;;3.20;;
49183;SDS011;35021;49.214;12.270;2022-10-31T06:10:29;3.33;;;3.03;;
49183;SDS011;35021;49.214;12.270;2022-10-31T06:12:56;5.30;;;3.28;;
49183;SDS011;35021;49.214;12.270;2022-10-31T06:15:23;4.82;;;2.75;;
49183;SDS011;35021;49.214;12.270;2022-10-31T06:18:03;3.58;;;2.80;;
49183;SDS011;35021;49.214;12.270;2022-10-31T06:20:31;3.80;;;3.00;;
49183;SDS011;35021;49.214;12.270;2022-10-31T06:22:59;3.65;;;3.13;;
49183;SDS011;35021;49.214;12.270;2022-10-31T06:25:27;3.50;;;2.78;;
49183;SDS011;35021;49.214;12.270;2022-10-31T06:27:54;3.50;;;2.65;;
49183;SDS011;35021;49.214;12.270;2022-10-31T06:30:22;3.28;;;2.97;;
49183;SDS011;35021;49.214;12.270;2022-10-31T06:32:49;4.45;;;3.25;;
49183;SDS011;35021;49.214;12.270;2022-10-31T06:35:16;3.10;;;2.75;;
49183;SDS011;35021;49.214;12.270;2022-10-31T06:37:49;4.97;;;3.40;;
49183;SDS011;35021;49.214;12.270;2022-10-31T06:40:18;3.25;;;2.80;;
49183;SDS011;35021;49.214;12.270;2022-10-31T06:42:45;3.30;;;2.92;;
49183;SDS011;35021;49.214;12.270;2022-10-31T06:45:11;5.25;;;3.17;;
49183;SDS011;35021;49.214;12.270;2022-10-31T06:47:39;4.18;;;2.72;;
49183;SDS011;35021;49.214;12.270;2022-10-31T06:50:22;5.63;;;3.13;;
49183;SDS011;35021;49.214;12.270;2022-10-31T06:52:50;3.42;;;3.13;;
49183;SDS011;35021;49.214;12.270;2022-10-31T06:55:24;3.47;;;3.17;;
49183;SDS011;35021;49.214;12.270;2022-10-31T06:57:52;3.40;;;3.10;;
49183;SDS011;35021;49.214;12.270;2022-10-31T07:00:29;3.58;;;3.28;;
49183;SDS011;35021;49.214;12.270;2022-10-31T07:02:57;3.67;;;3.20;;
49183;SDS011;35021;49.214;12.270;2022-10-31T07:05:25;3.75;;;3.17;;
49183;SDS011;35021;49.214;12.270;2022-10-31T07:07:54;4.00;;;3.35;;
49183;SDS011;35021;49.214;12.270;2022-10-31T07:10:23;3.20;;;2.90;;
49183;SDS011;35021;49.214;12.270;2022-10-31T07:12:59;4.35;;;2.90;;
49183;SDS011;35021;49.214;12.270;2022-10-31T07:15:33;5.32;;;3.00;;
49183;SDS011;35021;49.214;12.270;2022-10-31T07:18:04;3.85;;;3.03;;
49183;SDS011;35021;49.214;12.270;2022-10-31T07:20:33;3.70;;;2.60;;
49183;SDS011;35021;49.214;12.270;2022-10-31T07:23:03;4.93;;;2.60;;
49183;SDS011;35021;49.214;12.270;2022-10-31T07:25:31;4.03;;;2.65;;
49183;SDS011;35021;49.214;12.270;2022-10-31T07:27:58;3.65;;;2.53;;
49183;SDS011;35021;49.214;12.270;2022-10-31T07:30:26;3.90;;;3.00;;
49183;SDS011;35021;49.214;12.270;2022-10-31T07:32:52;2.95;;;2.55;;
49183;SDS011;35021;49.214;12.270;2022-10-31T07:35:21;4.07;;;3.10;;
49183;SDS011;35021;49.214;12.270;2022-10-31T07:37:52;5.57;;;3.03;;
49183;SDS011;35021;49.214;12.270;2022-10-31T07:40:19;4.60;;;2.80;;
49183;SDS011;35021;49.214;12.270;2022-10-31T07:42:48;6.53;;;3.00;;
49183;SDS011;35021;49.214;12.270;2022-10-31T07:45:18;4.20;;;3.03;;
49183;SDS011;35021;49.214;12.270;2022-10-31T07:50:15;5.60;;;3.15;;
49183;SDS011;35021;49.214;12.270;2022-10-31T07:52:44;4.90;;;3.83;;
49183;SDS011;35021;49.214;12.270;2022-10-31T07:55:11;6.03;;;3.80;;
49183;SDS011;35021;49.214;12.270;2022-10-31T07:57:38;4.45;;;3.30;;
49183;SDS011;35021;49.214;12.270;2022-10-31T08:00:05;6.53;;;3.05;;
49183;SDS011;35021;49.214;12.270;2022-10-31T08:02:34;4.53;;;3.45;;
49183;SDS011;35021;49.214;12.270;2022-10-31T08:05:01;5.95;;;3.33;;
49183;SDS011;35021;49.214;12.270;2022-10-31T08:07:29;4.28;;;3.35;;
49183;SDS011;35021;49.214;12.270;2022-10-31T08:10:06;5.72;;;3.45;;
49183;SDS011;35021;49.214;12.270;2022-10-31T08:12:33;4.10;;;3.08;;
49183;SDS011;35021;49.214;12.270;2022-10-31T08:15:00;4.32;;;3.10;;
49183;SDS011;35021;49.214;12.270;2022-10-31T08:17:28;4.78;;;3.65;;
49183;SDS011;35021;49.214;12.270;2022-10-31T08:19:56;6.15;;;3.08;;
49183;SDS011;35021;49.214;12.270;2022-10-31T08:22:22;5.32;;;3.00;;
49183;SDS011;35021;49.214;12.270;2022-10-31T08:24:49;4.65;;;3.50;;
49183;SDS011;35021;49.214;12.270;2022-10-31T08:27:16;8.52;;;3.53;;
49183;SDS011;35021;49.214;12.270;2022-10-31T08:29:43;4.55;;;3.13;;
49183;SDS011;35021;49.214;12.270;2022-10-31T08:32:10;4.72;;;3.40;;
49183;SDS011;35021;49.214;12.270;2022-10-31T08:34:37;4.40;;;3.25;;
49183;SDS011;35021;49.214;12.270;2022-10-31T08:37:04;5.55;;;3.97;;
49183;SDS011;35021;49.214;12.270;2022-10-31T08:39:30;3.53;;;2.88;;
49183;SDS011;35021;49.214;12.270;2022-10-31T08:41:57;3.67;;;2.60;;
49183;SDS011;35021;49.214;12.270;2022-10-31T08:44:24;4.78;;;3.13;;
49183;SDS011;35021;49.214;12.270;2022-10-31T08:46:51;4.78;;;3.63;;
49183;SDS011;35021;49.214;12.270;2022-10-31T08:49:18;5.05;;;3.10;;
49183;SDS011;35021;49.214;12.270;2022-10-31T08:51:48;3.53;;;2.90;;
49183;SDS011;35021;49.214;12.270;2022-10-31T08:54:15;4.53;;;3.25;;
49183;SDS011;35021;49.214;12.270;2022-10-31T08:56:42;3.55;;;2.53;;
49183;SDS011;35021;49.214;12.270;2022-10-31T08:59:08;3.80;;;2.90;;
49183;SDS011;35021;49.214;12.270;2022-10-31T09:01:35;4.72;;;3.00;;
49183;SDS011;35021;49.214;12.270;2022-10-31T09:04:02;5.72;;;3.47;;
49183;SDS011;35021;49.214;12.270;2022-10-31T09:06:29;7.00;;;2.92;;
49183;SDS011;35021;49.214;12.270;2022-10-31T09:08:56;3.15;;;2.85;;
49183;SDS011;35021;49.214;12.270;2022-10-31T09:11:23;3.38;;;2.40;;
49183;SDS011;35021;49.214;12.270;2022-10-31T09:13:51;3.78;;;2.83;;
49183;SDS011;35021;49.214;12.270;2022-10-31T09:16:18;4.78;;;2.63;;
49183;SDS011;35021;49.214;12.270;2022-10-31T09:18:45;3.65;;;2.53;;
49183;SDS011;35021;49.214;12.270;2022-10-31T09:21:12;6.03;;;2.63;;
49183;SDS011;35021;49.214;12.270;2022-10-31T09:23:39;3.72;;;2.60;;
49183;SDS011;35021;49.214;12.270;2022-10-31T09:26:06;4.32;;;2.85;;
49183;SDS011;35021;49.214;12.270;2022-10-31T09:28:33;4.65;;;2.88;;
49183;SDS011;35021;49.214;12.270;2022-10-31T09:30:59;4.53;;;2.47;;
49183;SDS011;35021;49.214;12.270;2022-10-31T09:33:26;3.22;;;2.30;;
49183;SDS011;35021;49.214;12.270;2022-10-31T09:35:53;3.47;;;2.42;;
49183;SDS011;35021;49.214;12.270;2022-10-31T09:38:20;6.15;;;2.65;;
49183;SDS011;35021;49.214;12.270;2022-10-31T09:40:49;5.57;;;2.40;;
49183;SDS011;35021;49.214;12.270;2022-10-31T09:52:04;4.50;;;2.67;;
49183;SDS011;35021;49.214;12.270;2022-10-31T09:54:19;4.88;;;2.92;;
49183;SDS011;35021;49.214;12.270;2022-10-31T09:57:03;4.75;;;2.80;;
49183;SDS011;35021;49.214;12.270;2022-10-31T09:59:35;5.88;;;3.00;;
49183;SDS011;35021;49.214;12.270;2022-10-31T10:02:10;4.30;;;2.50;;
49183;SDS011;35021;49.214;12.270;2022-10-31T10:04:56;3.63;;;2.85;;
49183;SDS011;35021;49.214;12.270;2022-10-31T10:10:25;5.75;;;2.80;;
49183;SDS011;35021;49.214;12.270;2022-10-31T10:18:38;4.93;;;2.40;;
49183;SDS011;35021;49.214;12.270;2022-10-31T10:24:33;5.78;;;2.55;;
49183;SDS011;35021;49.214;12.270;2022-10-31T10:30:02;4.90;;;2.80;;
49183;SDS011;35021;49.214;12.270;2022-10-31T10:32:31;5.53;;;3.00;;
49183;SDS011;35021;49.214;12.270;2022-10-31T10:37:52;3.88;;;2.40;;
49183;SDS011;35021;49.214;12.270;2022-10-31T10:51:44;5.07;;;3.05;;
49183;SDS011;35021;49.214;12.270;2022-10-31T10:57:22;6.90;;;2.58;;
49183;SDS011;35021;49.214;12.270;2022-10-31T11:02:46;5.18;;;2.72;;
49183;SDS011;35021;49.214;12.270;2022-10-31T11:05:18;3.72;;;2.70;;
49183;SDS011;35021;49.214;12.270;2022-10-31T11:08:11;5.40;;;2.83;;
49183;SDS011;35021;49.214;12.270;2022-10-31T11:10:59;6.20;;;3.22;;
49183;SDS011;35021;49.214;12.270;2022-10-31T11:13:28;5.90;;;2.90;;
49183;SDS011;35021;49.214;12.270;2022-10-31T11:18:27;5.07;;;3.10;;
49183;SDS011;35021;49.214;12.270;2022-10-31T11:20:58;5.40;;;2.75;;
49183;SDS011;35021;49.214;12.270;2022-10-31T11:23:27;6.63;;;2.60;;
49183;SDS011;35021;49.214;12.270;2022-10-31T11:28:33;4.43;;;2.53;;
49183;SDS011;35021;49.214;12.270;2022-10-31T11:31:07;4.50;;;2.53;;
49183;SDS011;35021;49.214;12.270;2022-10-31T11:36:21;5.18;;;2.42;;
49183;SDS011;35021;49.214;12.270;2022-10-31T11:38:51;5.88;;;2.63;;
49183;SDS011;35021;49.214;12.270;2022-10-31T11:41:29;4.53;;;2.58;;
49183;SDS011;35021;49.214;12.270;2022-10-31T11:44:02;5.97;;;2.30;;
49183;SDS011;35021;49.214;12.270;2022-10-31T11:46:44;4.97;;;2.42;;
49183;SDS011;35021;49.214;12.270;2022-10-31T11:49:28;6.28;;;2.47;;
49183;SDS011;35021;49.214;12.270;2022-10-31T11:51:57;5.75;;;2.50;;
49183;SDS011;35021;49.214;12.270;2022-10-31T11:54:29;5.30;;;2.50;;
49183;SDS011;35021;49.214;12.270;2022-10-31T11:56:59;8.30;;;2.85;;
49183;SDS011;35021;49.214;12.270;2022-10-31T11:59:27;5.25;;;2.10;;
49183;SDS011;35021;49.214;12.270;2022-10-31T12:01:59;4.25;;;2.40;;
49183;SDS011;35021;49.214;12.270;2022-10-31T12:04:33;4.30;;;2.22;;
49183;SDS011;35021;49.214;12.270;2022-10-31T12:07:07;5.22;;;2.90;;
49183;SDS011;35021;49.214;12.270;2022-10-31T12:09:35;6.60;;;2.58;;
49183;SDS011;35021;49.214;12.270;2022-10-31T12:12:20;5.38;;;2.10;;
49183;SDS011;35021;49.214;12.270;2022-10-31T12:17:36;6.05;;;2.90;;
49183;SDS011;35021;49.214;12.270;2022-10-31T12:23:01;6.43;;;2.00;;
49183;SDS011;35021;49.214;12.270;2022-10-31T12:31:25;4.13;;;2.35;;
49183;SDS011;35021;49.214;12.270;2022-10-31T12:37:00;8.57;;;3.28;;
49183;SDS011;35021;49.214;12.270;2022-10-31T12:39:54;5.05;;;2.22;;
49183;SDS011;35021;49.214;12.270;2022-10-31T12:42:35;4.97;;;2.33;;
49183;SDS011;35021;49.214;12.270;2022-10-31T12:45:35;4.00;;;2.33;;
49183;SDS011;35021;49.214;12.270;2022-10-31T12:51:19;5.45;;;2.88;;
49183;SDS011;35021;49.214;12.270;2022-10-31T12:57:23;3.92;;;2.70;;
49183;SDS011;35021;49.214;12.270;2022-10-31T13:00:19;4.07;;;2.38;;
49183;SDS011;35021;49.214;12.270;2022-10-31T13:05:27;3.65;;;2.15;;
49183;SDS011;35021;49.214;12.270;2022-10-31T13:08:03;5.72;;;2.92;;
49183;SDS011;35021;49.214;12.270;2022-10-31T13:10:45;3.80;;;1.92;;
49183;SDS011;35021;49.214;12.270;2022-10-31T13:13:21;4.28;;;2.10;;
49183;SDS011;35021;49.214;12.270;2022-10-31T13:15:54;7.40;;;2.42;;
49183;SDS011;35021;49.214;12.270;2022-10-31T13:18:30;4.68;;;2.00;;
49183;SDS011;35021;49.214;12.270;2022-10-31T13:21:01;3.75;;;2.13;;
49183;SDS011;35021;49.214;12.270;2022-10-31T13:23:33;3.83;;;2.20;;
49183;SDS011;35021;49.214;12.270;2022-10-31T13:26:38;4.25;;;2.22;;
49183;SDS011;35021;49.214;12.270;2022-10-31T13:31:43;3.92;;;1.92;;
49183;SDS011;35021;49.214;12.270;2022-10-31T13:34:18;5.82;;;2.70;;
49183;SDS011;35021;49.214;12.270;2022-10-31T13:45:46;4.03;;;2.15;;
49183;SDS011;35021;49.214;12.270;2022-10-31T13:47:59;4.15;;;2.03;;
49183;SDS011;35021;49.214;12.270;2022-10-31T13:50:43;5.30;;;1.83;;
49183;SDS011;35021;49.214;12.270;2022-10-31T13:53:39;7.28;;;2.47;;
49183;SDS011;35021;49.214;12.270;2022-10-31T13:58:57;5.43;;;2.42;;
49183;SDS011;35021;49.214;12.270;2022-10-31T14:01:31;7.07;;;2.40;;
49183;SDS011;35021;49.214;12.270;2022-10-31T14:04:02;3.75;;;2.15;;
49183;SDS011;35021;49.214;12.270;2022-10-31T14:06:47;5.43;;;2.13;;
49183;SDS011;35021;49.214;12.270;2022-10-31T14:09:36;8.65;;;3.22;;
49183;SDS011;35021;49.214;12.270;2022-10-31T14:12:37;4.68;;;2.42;;
49183;SDS011;35021;49.214;12.270;2022-10-31T14:15:16;4.45;;;2.67;;
49183;SDS011;35021;49.214;12.270;2022-10-31T14:17:58;4.45;;;2.13;;
49183;SDS011;35021;49.214;12.270;2022-10-31T14:20:39;6.60;;;2.60;;
49183;SDS011;35021;49.214;12.270;2022-10-31T14:23:11;3.58;;;2.20;;
49183;SDS011;35021;49.214;12.270;2022-10-31T14:28:45;4.35;;;2.47;;
49183;SDS011;35021;49.214;12.270;2022-10-31T14:49:02;3.90;;;2.40;;
49183;SDS011;35021;49.214;12.270;2022-10-31T14:51:39;3.08;;;2.45;;
49183;SDS011;35021;49.214;12.270;2022-10-31T14:54:12;4.93;;;2.35;;
49183;SDS011;35021;49.214;12.270;2022-10-31T14:56:49;4.07;;;2.38;;
49183;SDS011;35021;49.214;12.270;2022-10-31T14:59:21;3.08;;;2.38;;
49183;SDS011;35021;49.214;12.270;2022-10-31T15:01:54;6.07;;;2.80;;
49183;SDS011;35021;49.214;12.270;2022-10-31T15:04:40;5.00;;;2.50;;
49183;SDS011;35021;49.214;12.270;2022-10-31T15:07:47;3.92;;;2.65;;
49183;SDS011;35021;49.214;12.270;2022-10-31T15:10:15;5.20;;;2.13;;
49183;SDS011;35021;49.214;12.270;2022-10-31T15:12:51;4.45;;;2.83;;
49183;SDS011;35021;49.214;12.270;2022-10-31T15:15:22;3.00;;;2.00;;
49183;SDS011;35021;49.214;12.270;2022-10-31T15:17:54;3.20;;;2.30;;
49183;SDS011;35021;49.214;12.270;2022-10-31T15:20:25;3.60;;;2.67;;
49183;SDS011;35021;49.214;12.270;2022-10-31T15:22:54;3.83;;;2.40;;
49183;SDS011;35021;49.214;12.270;2022-10-31T15:25:23;4.93;;;2.50;;
49183;SDS011;35021;49.214;12.270;2022-10-31T15:27:53;4.22;;;2.53;;
49183;SDS011;35021;49.214;12.270;2022-10-31T15:30:24;4.30;;;2.28;;
49183;SDS011;35021;49.214;12.270;2022-10-31T15:32:53;3.25;;;2.33;;
49183;SDS011;35021;49.214;12.270;2022-10-31T15:35:25;4.65;;;2.40;;
49183;SDS011;35021;49.214;12.270;2022-10-31T15:37:57;4.25;;;2.50;;
49183;SDS011;35021;49.214;12.270;2022-10-31T15:40:26;4.53;;;2.47;;
49183;SDS011;35021;49.214;12.270;2022-10-31T15:42:56;5.63;;;2.38;;
49183;SDS011;35021;49.214;12.270;2022-10-31T15:45:26;3.92;;;2.75;;
49183;SDS011;35021;49.214;12.270;2022-10-31T15:48:04;4.72;;;2.70;;
49183;SDS011;35021;49.214;12.270;2022-10-31T15:50:46;4.97;;;2.88;;
49183;SDS011;35021;49.214;12.270;2022-10-31T15:55:57;8.23;;;3.30;;
49183;SDS011;35021;49.214;12.270;2022-10-31T15:58:26;6.68;;;3.78;;
49183;SDS011;35021;49.214;12.270;2022-10-31T16:01:01;6.68;;;3.97;;
49183;SDS011;35021;49.214;12.270;2022-10-31T16:03:30;7.95;;;4.40;;
49183;SDS011;35021;49.214;12.270;2022-10-31T16:05:59;6.57;;;4.70;;
49183;SDS011;35021;49.214;12.270;2022-10-31T16:13:54;4.85;;;3.60;;
49183;SDS011;35021;49.214;12.270;2022-10-31T16:16:26;5.50;;;3.45;;
49183;SDS011;35021;49.214;12.270;2022-10-31T16:19:01;5.43;;;3.60;;
49183;SDS011;35021;49.214;12.270;2022-10-31T16:21:32;6.05;;;2.90;;
49183;SDS011;35021;49.214;12.270;2022-10-31T16:27:25;4.90;;;2.90;;
49183;SDS011;35021;49.214;12.270;2022-10-31T16:29:56;5.60;;;2.85;;
49183;SDS011;35021;49.214;12.270;2022-10-31T16:32:33;4.15;;;2.40;;
49183;SDS011;35021;49.214;12.270;2022-10-31T16:35:33;6.53;;;2.85;;
49183;SDS011;35021;49.214;12.270;2022-10-31T16:38:02;3.97;;;2.28;;
49183;SDS011;35021;49.214;12.270;2022-10-31T16:40:29;4.35;;;2.33;;
49183;SDS011;35021;49.214;12.270;2022-10-31T16:42:57;5.72;;;2.65;;
49183;SDS011;35021;49.214;12.270;2022-10-31T16:45:27;4.72;;;2.65;;
49183;SDS011;35021;49.214;12.270;2022-10-31T16:48:01;6.85;;;2.90;;
49183;SDS011;35021;49.214;12.270;2022-10-31T16:50:32;7.35;;;2.83;;
49183;SDS011;35021;49.214;12.270;2022-10-31T16:52:59;6.00;;;2.78;;
49183;SDS011;35021;49.214;12.270;2022-10-31T16:55:46;5.07;;;2.78;;
49183;SDS011;35021;49.214;12.270;2022-10-31T16:58:21;5.85;;;2.70;;
49183;SDS011;35021;49.214;12.270;2022-10-31T17:00:50;4.28;;;2.00;;
49183;SDS011;35021;49.214;12.270;2022-10-31T17:03:18;4.43;;;2.38;;
49183;SDS011;35021;49.214;12.270;2022-10-31T17:05:46;4.97;;;2.55;;
49183;SDS011;35021;49.214;12.270;2022-10-31T17:08:13;6.63;;;3.47;;
49183;SDS011;35021;49.214;12.270;2022-10-31T17:10:40;4.93;;;3.65;;
49183;SDS011;35021;49.214;12.270;2022-10-31T17:13:13;6.50;;;3.35;;
49183;SDS011;35021;49.214;12.270;2022-10-31T17:15:44;7.03;;;3.40;;
49183;SDS011;35021;49.214;12.270;2022-10-31T17:18:14;6.15;;;3.03;;
49183;SDS011;35021;49.214;12.270;2022-10-31T17:20:42;5.47;;;3.15;;
49183;SDS011;35021;49.214;12.270;2022-10-31T17:23:10;4.78;;;2.78;;
49183;SDS011;35021;49.214;12.270;2022-10-31T17:25:38;4.38;;;2.95;;
49183;SDS011;35021;49.214;12.270;2022-10-31T17:28:05;2.92;;;2.47;;
49183;SDS011;35021;49.214;12.270;2022-10-31T17:30:32;4.20;;;2.80;;
49183;SDS011;35021;49.214;12.270;2022-10-31T17:33:01;3.10;;;2.38;;
49183;SDS011;35021;49.214;12.270;2022-10-31T17:35:29;2.97;;;2.40;;